sensor_id;sensor_type;location;lat;lon;timestamp;temperature;humidity
59469;DHT22;45277;52.768;18.262;2022-11-23T00:01:27;1.60;99.90
59469;DHT22;45277;52.768;18.262;2022-11-23T00:02:59;1.50;99.90
59469;DHT22;45277;52.768;18.262;2022-11-23T00:04:31;1.50;99.90
59469;DHT22;45277;52.768;18.262;2022-11-23T00:06:02;1.50;99.90
59469;DHT22;45277;52.768;18.262;2022-11-23T00:07:34;1.50;99.90
59469;DHT22;45277;52.768;18.262;2022-11-23T00:09:05;1.50;99.90
59469;DHT22;45277;52.768;18.262;2022-11-23T00:10:37;1.50;99.90
59469;DHT22;45277;52.768;18.262;2022-11-23T00:12:09;1.50;99.90
59469;DHT22;45277;52.768;18.262;2022-11-23T00:13:40;1.50;99.90
59469;DHT22;45277;52.768;18.262;2022-11-23T00:15:13;1.60;99.90
59469;DHT22;45277;52.768;18.262;2022-11-23T00:16:45;1.50;99.90
59469;DHT22;45277;52.768;18.262;2022-11-23T00:18:16;1.60;99.90
59469;DHT22;45277;52.768;18.262;2022-11-23T00:19:47;1.60;99.90
59469;DHT22;45277;52.768;18.262;2022-11-23T00:21:20;1.50;99.90
59469;DHT22;45277;52.768;18.262;2022-11-23T00:22:52;1.50;99.90
59469;DHT22;45277;52.768;18.262;2022-11-23T00:24:23;1.50;99.90
59469;DHT22;45277;52.768;18.262;2022-11-23T00:25:54;1.50;99.90
59469;DHT22;45277;52.768;18.262;2022-11-23T00:27:26;1.60;99.90
59469;DHT22;45277;52.768;18.262;2022-11-23T00:28:57;1.50;99.90
59469;DHT22;45277;52.768;18.262;2022-11-23T00:30:29;1.50;99.90
59469;DHT22;45277;52.768;18.262;2022-11-23T00:32:00;1.50;99.90
59469;DHT22;45277;52.768;18.262;2022-11-23T00:33:31;1.60;99.90
59469;DHT22;45277;52.768;18.262;2022-11-23T00:35:03;1.50;99.90
59469;DHT22;45277;52.768;18.262;2022-11-23T00:36:35;1.50;99.90
59469;DHT22;45277;52.768;18.262;2022-11-23T00:38:06;1.60;99.90
59469;DHT22;45277;52.768;18.262;2022-11-23T00:39:37;1.50;99.90
59469;DHT22;45277;52.768;18.262;2022-11-23T00:41:12;1.50;99.90
59469;DHT22;45277;52.768;18.262;2022-11-23T00:42:43;1.60;99.90
59469;DHT22;45277;52.768;18.262;2022-11-23T00:44:15;1.60;99.90
59469;DHT22;45277;52.768;18.262;2022-11-23T00:45:46;1.60;99.90
59469;DHT22;45277;52.768;18.262;2022-11-23T00:47:20;1.50;99.90
59469;DHT22;45277;52.768;18.262;2022-11-23T00:48:53;1.60;99.90
59469;DHT22;45277;52.768;18.262;2022-11-23T00:50:25;1.60;99.90
59469;DHT22;45277;52.768;18.262;2022-11-23T00:51:56;1.60;99.90
59469;DHT22;45277;52.768;18.262;2022-11-23T00:53:28;1.50;99.90
59469;DHT22;45277;52.768;18.262;2022-11-23T00:54:59;1.60;99.90
59469;DHT22;45277;52.768;18.262;2022-11-23T00:56:32;1.60;99.90
59469;DHT22;45277;52.768;18.262;2022-11-23T00:58:04;1.60;99.90
59469;DHT22;45277;52.768;18.262;2022-11-23T00:59:35;1.60;99.90
59469;DHT22;45277;52.768;18.262;2022-11-23T01:01:09;1.60;99.90
59469;DHT22;45277;52.768;18.262;2022-11-23T01:02:41;1.60;99.90
59469;DHT22;45277;52.768;18.262;2022-11-23T01:04:12;1.60;99.90
59469;DHT22;45277;52.768;18.262;2022-11-23T01:05:44;1.60;99.90
59469;DHT22;45277;52.768;18.262;2022-11-23T01:07:15;1.60;99.90
59469;DHT22;45277;52.768;18.262;2022-11-23T01:08:51;1.60;99.90
59469;DHT22;45277;52.768;18.262;2022-11-23T01:10:22;1.60;99.90
59469;DHT22;45277;52.768;18.262;2022-11-23T01:11:54;1.60;99.90
59469;DHT22;45277;52.768;18.262;2022-11-23T01:13:26;1.60;99.90
59469;DHT22;45277;52.768;18.262;2022-11-23T01:14:57;1.60;99.90
59469;DHT22;45277;52.768;18.262;2022-11-23T01:16:33;1.60;99.90
59469;DHT22;45277;52.768;18.262;2022-11-23T01:18:05;1.60;99.90
59469;DHT22;45277;52.768;18.262;2022-11-23T01:19:36;1.60;99.90
59469;DHT22;45277;52.768;18.262;2022-11-23T01:21:08;1.60;99.90
59469;DHT22;45277;52.768;18.262;2022-11-23T01:22:40;1.60;99.90
59469;DHT22;45277;52.768;18.262;2022-11-23T01:24:24;1.60;99.90
59469;DHT22;45277;52.768;18.262;2022-11-23T01:25:55;1.60;99.90
59469;DHT22;45277;52.768;18.262;2022-11-23T01:27:27;1.70;99.90
59469;DHT22;45277;52.768;18.262;2022-11-23T01:28:58;1.70;99.90
59469;DHT22;45277;52.768;18.262;2022-11-23T01:30:30;1.70;99.90
59469;DHT22;45277;52.768;18.262;2022-11-23T01:32:01;1.60;99.90
59469;DHT22;45277;52.768;18.262;2022-11-23T01:33:33;1.70;99.90
59469;DHT22;45277;52.768;18.262;2022-11-23T01:35:05;1.60;99.90
59469;DHT22;45277;52.768;18.262;2022-11-23T01:36:36;1.70;99.90
59469;DHT22;45277;52.768;18.262;2022-11-23T01:38:08;1.70;99.90
59469;DHT22;45277;52.768;18.262;2022-11-23T01:39:39;1.70;99.90
59469;DHT22;45277;52.768;18.262;2022-11-23T01:41:16;1.70;99.90
59469;DHT22;45277;52.768;18.262;2022-11-23T01:42:58;1.70;99.90
59469;DHT22;45277;52.768;18.262;2022-11-23T01:44:32;1.70;99.90
59469;DHT22;45277;52.768;18.262;2022-11-23T01:46:05;1.70;99.90
59469;DHT22;45277;52.768;18.262;2022-11-23T01:47:36;1.70;99.90
59469;DHT22;45277;52.768;18.262;2022-11-23T01:49:08;1.70;99.90
59469;DHT22;45277;52.768;18.262;2022-11-23T01:50:40;1.70;99.90
59469;DHT22;45277;52.768;18.262;2022-11-23T01:52:16;1.70;99.90
59469;DHT22;45277;52.768;18.262;2022-11-23T01:53:51;1.70;99.90
59469;DHT22;45277;52.768;18.262;2022-11-23T01:55:24;1.70;99.90
59469;DHT22;45277;52.768;18.262;2022-11-23T01:56:59;1.70;99.90
59469;DHT22;45277;52.768;18.262;2022-11-23T01:58:35;1.70;99.90
59469;DHT22;45277;52.768;18.262;2022-11-23T02:00:08;1.70;99.90
59469;DHT22;45277;52.768;18.262;2022-11-23T02:01:39;1.70;99.90
59469;DHT22;45277;52.768;18.262;2022-11-23T02:03:12;1.70;99.90
59469;DHT22;45277;52.768;18.262;2022-11-23T02:04:46;1.70;99.90
59469;DHT22;45277;52.768;18.262;2022-11-23T02:06:19;1.70;99.90
59469;DHT22;45277;52.768;18.262;2022-11-23T02:07:52;1.70;99.90
59469;DHT22;45277;52.768;18.262;2022-11-23T02:09:23;1.70;99.90
59469;DHT22;45277;52.768;18.262;2022-11-23T02:10:56;1.70;99.90
59469;DHT22;45277;52.768;18.262;2022-11-23T02:12:28;1.70;99.90
59469;DHT22;45277;52.768;18.262;2022-11-23T02:13:59;1.70;99.90
59469;DHT22;45277;52.768;18.262;2022-11-23T02:15:32;1.70;99.90
59469;DHT22;45277;52.768;18.262;2022-11-23T02:17:05;1.70;99.90
59469;DHT22;45277;52.768;18.262;2022-11-23T02:18:38;1.70;99.90
59469;DHT22;45277;52.768;18.262;2022-11-23T02:20:13;1.70;99.90
59469;DHT22;45277;52.768;18.262;2022-11-23T02:21:48;1.70;99.90
59469;DHT22;45277;52.768;18.262;2022-11-23T02:25:36;1.70;99.90
59469;DHT22;45277;52.768;18.262;2022-11-23T02:27:11;1.80;99.90
59469;DHT22;45277;52.768;18.262;2022-11-23T02:30:38;1.80;99.90
59469;DHT22;45277;52.768;18.262;2022-11-23T02:32:11;1.80;99.90
59469;DHT22;45277;52.768;18.262;2022-11-23T02:33:42;1.80;99.90
59469;DHT22;45277;52.768;18.262;2022-11-23T02:35:13;1.80;99.90
59469;DHT22;45277;52.768;18.262;2022-11-23T02:36:46;1.80;99.90
59469;DHT22;45277;52.768;18.262;2022-11-23T02:38:18;1.80;99.90
59469;DHT22;45277;52.768;18.262;2022-11-23T02:39:51;1.80;99.90
59469;DHT22;45277;52.768;18.262;2022-11-23T02:41:23;1.80;99.90
59469;DHT22;45277;52.768;18.262;2022-11-23T02:42:54;1.80;99.90
59469;DHT22;45277;52.768;18.262;2022-11-23T02:44:38;1.80;99.90
59469;DHT22;45277;52.768;18.262;2022-11-23T02:46:12;1.80;99.90
59469;DHT22;45277;52.768;18.262;2022-11-23T02:47:43;1.80;99.90
59469;DHT22;45277;52.768;18.262;2022-11-23T02:49:15;1.80;99.90
59469;DHT22;45277;52.768;18.262;2022-11-23T02:50:46;1.80;99.90
59469;DHT22;45277;52.768;18.262;2022-11-23T02:52:18;1.80;99.90
59469;DHT22;45277;52.768;18.262;2022-11-23T02:53:49;1.80;99.90
59469;DHT22;45277;52.768;18.262;2022-11-23T02:55:21;1.80;99.90
59469;DHT22;45277;52.768;18.262;2022-11-23T02:56:53;1.80;99.90
59469;DHT22;45277;52.768;18.262;2022-11-23T02:58:24;1.80;99.90
59469;DHT22;45277;52.768;18.262;2022-11-23T02:59:55;1.80;99.90
59469;DHT22;45277;52.768;18.262;2022-11-23T03:01:27;1.80;99.90
59469;DHT22;45277;52.768;18.262;2022-11-23T03:03:00;1.80;99.90
59469;DHT22;45277;52.768;18.262;2022-11-23T03:04:32;1.80;99.90
59469;DHT22;45277;52.768;18.262;2022-11-23T03:06:03;1.80;99.90
59469;DHT22;45277;52.768;18.262;2022-11-23T03:07:35;1.80;99.90
59469;DHT22;45277;52.768;18.262;2022-11-23T03:09:06;1.80;99.90
59469;DHT22;45277;52.768;18.262;2022-11-23T03:10:38;1.80;99.90
59469;DHT22;45277;52.768;18.262;2022-11-23T03:12:09;1.80;99.90
59469;DHT22;45277;52.768;18.262;2022-11-23T03:13:40;1.80;99.90
59469;DHT22;45277;52.768;18.262;2022-11-23T03:15:12;1.80;99.90
59469;DHT22;45277;52.768;18.262;2022-11-23T03:16:43;1.80;99.90
59469;DHT22;45277;52.768;18.262;2022-11-23T03:18:15;1.80;99.90
59469;DHT22;45277;52.768;18.262;2022-11-23T03:19:46;1.80;99.90
59469;DHT22;45277;52.768;18.262;2022-11-23T03:21:17;1.80;99.90
59469;DHT22;45277;52.768;18.262;2022-11-23T03:22:49;1.90;99.90
59469;DHT22;45277;52.768;18.262;2022-11-23T03:24:20;1.80;99.90
59469;DHT22;45277;52.768;18.262;2022-11-23T03:25:58;1.80;99.90
59469;DHT22;45277;52.768;18.262;2022-11-23T03:27:30;1.80;99.90
59469;DHT22;45277;52.768;18.262;2022-11-23T03:29:04;1.80;99.90
59469;DHT22;45277;52.768;18.262;2022-11-23T03:30:35;1.90;99.90
59469;DHT22;45277;52.768;18.262;2022-11-23T03:32:06;1.80;99.90
59469;DHT22;45277;52.768;18.262;2022-11-23T03:33:38;1.80;99.90
59469;DHT22;45277;52.768;18.262;2022-11-23T03:35:09;1.80;99.90
59469;DHT22;45277;52.768;18.262;2022-11-23T03:36:40;1.80;99.90
59469;DHT22;45277;52.768;18.262;2022-11-23T03:38:12;1.80;99.90
59469;DHT22;45277;52.768;18.262;2022-11-23T03:39:43;1.90;99.90
59469;DHT22;45277;52.768;18.262;2022-11-23T03:41:15;1.90;99.90
59469;DHT22;45277;52.768;18.262;2022-11-23T03:42:46;1.80;99.90
59469;DHT22;45277;52.768;18.262;2022-11-23T03:44:17;1.90;99.90
59469;DHT22;45277;52.768;18.262;2022-11-23T03:45:49;1.90;99.90
59469;DHT22;45277;52.768;18.262;2022-11-23T03:47:21;1.90;99.90
59469;DHT22;45277;52.768;18.262;2022-11-23T03:48:52;1.90;99.90
59469;DHT22;45277;52.768;18.262;2022-11-23T03:50:24;1.90;99.90
59469;DHT22;45277;52.768;18.262;2022-11-23T03:51:55;1.90;99.90
59469;DHT22;45277;52.768;18.262;2022-11-23T03:53:26;1.90;99.90
59469;DHT22;45277;52.768;18.262;2022-11-23T03:54:58;1.90;99.90
59469;DHT22;45277;52.768;18.262;2022-11-23T03:56:29;1.90;99.90
59469;DHT22;45277;52.768;18.262;2022-11-23T03:58:00;1.90;99.90
59469;DHT22;45277;52.768;18.262;2022-11-23T03:59:32;1.90;99.90
59469;DHT22;45277;52.768;18.262;2022-11-23T04:01:04;1.90;99.90
59469;DHT22;45277;52.768;18.262;2022-11-23T04:02:35;1.90;99.90
59469;DHT22;45277;52.768;18.262;2022-11-23T04:04:06;1.90;99.90
59469;DHT22;45277;52.768;18.262;2022-11-23T04:05:38;1.90;99.90
59469;DHT22;45277;52.768;18.262;2022-11-23T04:07:09;1.90;99.90
59469;DHT22;45277;52.768;18.262;2022-11-23T04:08:41;1.90;99.90
59469;DHT22;45277;52.768;18.262;2022-11-23T04:10:17;1.90;99.90
59469;DHT22;45277;52.768;18.262;2022-11-23T04:11:49;1.90;99.90
59469;DHT22;45277;52.768;18.262;2022-11-23T04:13:20;1.90;99.90
59469;DHT22;45277;52.768;18.262;2022-11-23T04:14:52;1.90;99.90
59469;DHT22;45277;52.768;18.262;2022-11-23T04:16:23;1.90;99.90
59469;DHT22;45277;52.768;18.262;2022-11-23T04:17:54;1.90;99.90
59469;DHT22;45277;52.768;18.262;2022-11-23T04:19:26;1.80;99.90
59469;DHT22;45277;52.768;18.262;2022-11-23T04:20:57;1.90;99.90
59469;DHT22;45277;52.768;18.262;2022-11-23T04:22:29;1.90;99.90
59469;DHT22;45277;52.768;18.262;2022-11-23T04:24:00;1.90;99.90
59469;DHT22;45277;52.768;18.262;2022-11-23T04:25:31;1.90;99.90
59469;DHT22;45277;52.768;18.262;2022-11-23T04:27:03;1.90;99.90
59469;DHT22;45277;52.768;18.262;2022-11-23T04:28:34;1.90;99.90
59469;DHT22;45277;52.768;18.262;2022-11-23T04:30:06;1.90;99.90
59469;DHT22;45277;52.768;18.262;2022-11-23T04:31:37;1.90;99.90
59469;DHT22;45277;52.768;18.262;2022-11-23T04:33:09;1.90;99.90
59469;DHT22;45277;52.768;18.262;2022-11-23T04:34:40;1.90;99.90
59469;DHT22;45277;52.768;18.262;2022-11-23T04:36:12;1.90;99.90
59469;DHT22;45277;52.768;18.262;2022-11-23T04:37:43;1.90;99.90
59469;DHT22;45277;52.768;18.262;2022-11-23T04:39:14;1.90;99.90
59469;DHT22;45277;52.768;18.262;2022-11-23T04:40:46;1.90;99.90
59469;DHT22;45277;52.768;18.262;2022-11-23T04:42:18;1.90;99.90
59469;DHT22;45277;52.768;18.262;2022-11-23T04:43:50;1.90;99.90
59469;DHT22;45277;52.768;18.262;2022-11-23T04:45:22;1.90;99.90
59469;DHT22;45277;52.768;18.262;2022-11-23T04:46:53;1.90;99.90
59469;DHT22;45277;52.768;18.262;2022-11-23T04:48:24;1.90;99.90
59469;DHT22;45277;52.768;18.262;2022-11-23T04:49:56;1.90;99.90
59469;DHT22;45277;52.768;18.262;2022-11-23T04:51:27;1.90;99.90
59469;DHT22;45277;52.768;18.262;2022-11-23T04:52:59;1.90;99.90
59469;DHT22;45277;52.768;18.262;2022-11-23T04:54:30;1.90;99.90
59469;DHT22;45277;52.768;18.262;2022-11-23T04:56:02;1.90;99.90
59469;DHT22;45277;52.768;18.262;2022-11-23T04:57:35;1.90;99.90
59469;DHT22;45277;52.768;18.262;2022-11-23T04:59:07;1.90;99.90
59469;DHT22;45277;52.768;18.262;2022-11-23T05:00:38;1.90;99.90
59469;DHT22;45277;52.768;18.262;2022-11-23T05:02:10;1.90;99.90
59469;DHT22;45277;52.768;18.262;2022-11-23T05:03:41;1.90;99.90
59469;DHT22;45277;52.768;18.262;2022-11-23T05:05:13;1.90;99.90
59469;DHT22;45277;52.768;18.262;2022-11-23T05:06:44;1.90;99.90
59469;DHT22;45277;52.768;18.262;2022-11-23T05:08:16;1.90;99.90
59469;DHT22;45277;52.768;18.262;2022-11-23T05:09:47;1.90;99.90
59469;DHT22;45277;52.768;18.262;2022-11-23T05:11:18;1.90;99.90
59469;DHT22;45277;52.768;18.262;2022-11-23T05:12:50;1.90;99.90
59469;DHT22;45277;52.768;18.262;2022-11-23T05:14:22;1.90;99.90
59469;DHT22;45277;52.768;18.262;2022-11-23T05:15:53;1.90;99.90
59469;DHT22;45277;52.768;18.262;2022-11-23T05:17:25;1.90;99.90
59469;DHT22;45277;52.768;18.262;2022-11-23T05:18:57;1.90;99.90
59469;DHT22;45277;52.768;18.262;2022-11-23T05:20:29;1.90;99.90
59469;DHT22;45277;52.768;18.262;2022-11-23T05:22:00;1.90;99.90
59469;DHT22;45277;52.768;18.262;2022-11-23T05:23:32;1.90;99.90
59469;DHT22;45277;52.768;18.262;2022-11-23T05:25:03;1.90;99.90
59469;DHT22;45277;52.768;18.262;2022-11-23T05:26:35;1.90;99.90
59469;DHT22;45277;52.768;18.262;2022-11-23T05:28:06;1.90;99.90
59469;DHT22;45277;52.768;18.262;2022-11-23T05:29:38;1.90;99.90
59469;DHT22;45277;52.768;18.262;2022-11-23T05:31:10;1.90;99.90
59469;DHT22;45277;52.768;18.262;2022-11-23T05:32:41;2.00;99.90
59469;DHT22;45277;52.768;18.262;2022-11-23T05:34:12;2.00;99.90
59469;DHT22;45277;52.768;18.262;2022-11-23T05:35:44;2.00;99.90
59469;DHT22;45277;52.768;18.262;2022-11-23T05:37:16;1.90;99.90
59469;DHT22;45277;52.768;18.262;2022-11-23T05:38:47;1.90;99.90
59469;DHT22;45277;52.768;18.262;2022-11-23T05:40:18;1.90;99.90
59469;DHT22;45277;52.768;18.262;2022-11-23T05:41:50;1.90;99.90
59469;DHT22;45277;52.768;18.262;2022-11-23T05:43:21;1.90;99.90
59469;DHT22;45277;52.768;18.262;2022-11-23T05:44:53;1.90;99.90
59469;DHT22;45277;52.768;18.262;2022-11-23T05:46:24;1.90;99.90
59469;DHT22;45277;52.768;18.262;2022-11-23T05:47:57;1.90;99.90
59469;DHT22;45277;52.768;18.262;2022-11-23T05:49:29;1.90;99.90
59469;DHT22;45277;52.768;18.262;2022-11-23T05:51:00;1.90;99.90
59469;DHT22;45277;52.768;18.262;2022-11-23T05:52:31;1.90;99.90
59469;DHT22;45277;52.768;18.262;2022-11-23T05:54:03;1.90;99.90
59469;DHT22;45277;52.768;18.262;2022-11-23T05:55:35;1.90;99.90
59469;DHT22;45277;52.768;18.262;2022-11-23T05:57:06;1.90;99.90
59469;DHT22;45277;52.768;18.262;2022-11-23T05:58:39;1.90;99.90
59469;DHT22;45277;52.768;18.262;2022-11-23T06:00:10;1.90;99.90
59469;DHT22;45277;52.768;18.262;2022-11-23T06:01:42;1.90;99.90
59469;DHT22;45277;52.768;18.262;2022-11-23T06:03:13;1.90;99.90
59469;DHT22;45277;52.768;18.262;2022-11-23T06:04:45;1.90;99.90
59469;DHT22;45277;52.768;18.262;2022-11-23T06:06:16;1.90;99.90
59469;DHT22;45277;52.768;18.262;2022-11-23T06:07:51;1.90;99.90
59469;DHT22;45277;52.768;18.262;2022-11-23T06:09:23;1.90;99.90
59469;DHT22;45277;52.768;18.262;2022-11-23T06:10:54;1.90;99.90
59469;DHT22;45277;52.768;18.262;2022-11-23T06:12:29;1.90;99.90
59469;DHT22;45277;52.768;18.262;2022-11-23T06:14:00;1.90;99.90
59469;DHT22;45277;52.768;18.262;2022-11-23T06:15:32;2.00;99.90
59469;DHT22;45277;52.768;18.262;2022-11-23T06:17:03;2.00;99.90
59469;DHT22;45277;52.768;18.262;2022-11-23T06:18:35;2.00;99.90
59469;DHT22;45277;52.768;18.262;2022-11-23T06:20:07;2.00;99.90
59469;DHT22;45277;52.768;18.262;2022-11-23T06:21:39;2.00;99.90
59469;DHT22;45277;52.768;18.262;2022-11-23T06:23:10;2.00;99.90
59469;DHT22;45277;52.768;18.262;2022-11-23T06:24:42;2.00;99.90
59469;DHT22;45277;52.768;18.262;2022-11-23T06:26:14;2.00;99.90
59469;DHT22;45277;52.768;18.262;2022-11-23T06:27:56;2.00;99.90
59469;DHT22;45277;52.768;18.262;2022-11-23T06:29:27;2.00;99.90
59469;DHT22;45277;52.768;18.262;2022-11-23T06:31:04;2.00;99.90
59469;DHT22;45277;52.768;18.262;2022-11-23T06:32:36;1.90;99.90
59469;DHT22;45277;52.768;18.262;2022-11-23T06:34:07;2.00;99.90
59469;DHT22;45277;52.768;18.262;2022-11-23T06:35:39;1.90;99.90
59469;DHT22;45277;52.768;18.262;2022-11-23T06:37:10;2.00;99.90
59469;DHT22;45277;52.768;18.262;2022-11-23T06:38:42;2.00;99.90
59469;DHT22;45277;52.768;18.262;2022-11-23T06:40:14;2.00;99.90
59469;DHT22;45277;52.768;18.262;2022-11-23T06:41:45;2.00;99.90
59469;DHT22;45277;52.768;18.262;2022-11-23T06:43:16;2.00;99.90
59469;DHT22;45277;52.768;18.262;2022-11-23T06:44:48;2.00;99.90
59469;DHT22;45277;52.768;18.262;2022-11-23T06:46:19;2.00;99.90
59469;DHT22;45277;52.768;18.262;2022-11-23T06:47:53;2.00;99.90
59469;DHT22;45277;52.768;18.262;2022-11-23T06:49:25;2.00;99.90
59469;DHT22;45277;52.768;18.262;2022-11-23T06:50:59;2.00;99.90
59469;DHT22;45277;52.768;18.262;2022-11-23T06:52:31;2.00;99.90
59469;DHT22;45277;52.768;18.262;2022-11-23T06:54:02;2.00;99.90
59469;DHT22;45277;52.768;18.262;2022-11-23T06:55:34;2.00;99.90
59469;DHT22;45277;52.768;18.262;2022-11-23T06:57:08;2.00;99.90
59469;DHT22;45277;52.768;18.262;2022-11-23T06:58:40;2.00;99.90
59469;DHT22;45277;52.768;18.262;2022-11-23T07:00:12;2.00;99.90
59469;DHT22;45277;52.768;18.262;2022-11-23T07:01:43;2.00;99.90
59469;DHT22;45277;52.768;18.262;2022-11-23T07:03:23;2.00;99.90
59469;DHT22;45277;52.768;18.262;2022-11-23T07:04:54;2.00;99.90
59469;DHT22;45277;52.768;18.262;2022-11-23T07:06:25;2.00;99.90
59469;DHT22;45277;52.768;18.262;2022-11-23T07:07:57;2.00;99.90
59469;DHT22;45277;52.768;18.262;2022-11-23T07:09:28;2.00;99.90
59469;DHT22;45277;52.768;18.262;2022-11-23T07:11:01;2.00;99.90
59469;DHT22;45277;52.768;18.262;2022-11-23T07:12:32;2.00;99.90
59469;DHT22;45277;52.768;18.262;2022-11-23T07:14:04;2.00;99.90
59469;DHT22;45277;52.768;18.262;2022-11-23T07:15:36;2.00;99.90
59469;DHT22;45277;52.768;18.262;2022-11-23T07:17:08;1.90;99.90
59469;DHT22;45277;52.768;18.262;2022-11-23T07:18:39;2.00;99.90
59469;DHT22;45277;52.768;18.262;2022-11-23T07:20:11;2.00;99.90
59469;DHT22;45277;52.768;18.262;2022-11-23T07:21:44;1.90;99.90
59469;DHT22;45277;52.768;18.262;2022-11-23T07:23:15;1.90;99.90
59469;DHT22;45277;52.768;18.262;2022-11-23T07:24:47;1.90;99.90
59469;DHT22;45277;52.768;18.262;2022-11-23T07:26:18;1.90;99.90
59469;DHT22;45277;52.768;18.262;2022-11-23T07:28:00;2.00;99.90
59469;DHT22;45277;52.768;18.262;2022-11-23T07:29:31;2.00;99.90
59469;DHT22;45277;52.768;18.262;2022-11-23T07:31:03;1.90;99.90
59469;DHT22;45277;52.768;18.262;2022-11-23T07:32:34;1.90;99.90
59469;DHT22;45277;52.768;18.262;2022-11-23T07:34:05;1.90;99.90
59469;DHT22;45277;52.768;18.262;2022-11-23T07:35:40;1.90;99.90
59469;DHT22;45277;52.768;18.262;2022-11-23T07:37:11;1.90;99.90
59469;DHT22;45277;52.768;18.262;2022-11-23T07:38:42;2.00;99.90
59469;DHT22;45277;52.768;18.262;2022-11-23T07:40:14;1.90;99.90
59469;DHT22;45277;52.768;18.262;2022-11-23T07:41:48;2.00;99.90
59469;DHT22;45277;52.768;18.262;2022-11-23T07:43:20;2.00;99.90
59469;DHT22;45277;52.768;18.262;2022-11-23T07:44:51;2.00;99.90
59469;DHT22;45277;52.768;18.262;2022-11-23T07:46:22;2.00;99.90
59469;DHT22;45277;52.768;18.262;2022-11-23T07:47:58;2.00;99.90
59469;DHT22;45277;52.768;18.262;2022-11-23T07:49:30;2.00;99.90
59469;DHT22;45277;52.768;18.262;2022-11-23T07:51:02;2.00;99.90
59469;DHT22;45277;52.768;18.262;2022-11-23T07:52:35;2.00;99.90
59469;DHT22;45277;52.768;18.262;2022-11-23T07:54:07;2.00;99.90
59469;DHT22;45277;52.768;18.262;2022-11-23T07:55:38;2.10;99.90
59469;DHT22;45277;52.768;18.262;2022-11-23T07:57:09;2.10;99.90
59469;DHT22;45277;52.768;18.262;2022-11-23T07:58:41;2.10;99.90
59469;DHT22;45277;52.768;18.262;2022-11-23T08:00:13;2.10;99.90
59469;DHT22;45277;52.768;18.262;2022-11-23T08:01:45;2.10;99.90
59469;DHT22;45277;52.768;18.262;2022-11-23T08:03:17;2.10;99.90
59469;DHT22;45277;52.768;18.262;2022-11-23T08:04:49;2.10;99.90
59469;DHT22;45277;52.768;18.262;2022-11-23T08:06:20;2.10;99.90
59469;DHT22;45277;52.768;18.262;2022-11-23T08:07:57;2.00;99.90
59469;DHT22;45277;52.768;18.262;2022-11-23T08:09:29;2.10;99.90
59469;DHT22;45277;52.768;18.262;2022-11-23T08:11:00;2.10;99.90
59469;DHT22;45277;52.768;18.262;2022-11-23T08:12:32;2.10;99.90
59469;DHT22;45277;52.768;18.262;2022-11-23T08:14:03;2.10;99.90
59469;DHT22;45277;52.768;18.262;2022-11-23T08:15:34;2.10;99.90
59469;DHT22;45277;52.768;18.262;2022-11-23T08:17:06;2.10;99.90
59469;DHT22;45277;52.768;18.262;2022-11-23T08:18:38;2.20;99.90
59469;DHT22;45277;52.768;18.262;2022-11-23T08:20:10;2.10;99.90
59469;DHT22;45277;52.768;18.262;2022-11-23T08:21:42;2.20;99.90
59469;DHT22;45277;52.768;18.262;2022-11-23T08:23:13;2.20;99.90
59469;DHT22;45277;52.768;18.262;2022-11-23T08:24:45;2.20;99.90
59469;DHT22;45277;52.768;18.262;2022-11-23T08:26:18;2.10;99.90
59469;DHT22;45277;52.768;18.262;2022-11-23T08:28:07;2.20;99.90
59469;DHT22;45277;52.768;18.262;2022-11-23T08:29:38;2.20;99.90
59469;DHT22;45277;52.768;18.262;2022-11-23T08:31:10;2.20;99.90
59469;DHT22;45277;52.768;18.262;2022-11-23T08:32:42;2.20;99.90
59469;DHT22;45277;52.768;18.262;2022-11-23T08:34:13;2.20;99.90
59469;DHT22;45277;52.768;18.262;2022-11-23T08:35:45;2.30;99.90
59469;DHT22;45277;52.768;18.262;2022-11-23T08:37:16;2.30;99.90
59469;DHT22;45277;52.768;18.262;2022-11-23T08:38:48;2.30;99.90
59469;DHT22;45277;52.768;18.262;2022-11-23T08:40:21;2.30;99.90
59469;DHT22;45277;52.768;18.262;2022-11-23T08:41:52;2.20;99.90
59469;DHT22;45277;52.768;18.262;2022-11-23T08:43:24;2.30;99.90
59469;DHT22;45277;52.768;18.262;2022-11-23T08:44:55;2.30;99.90
59469;DHT22;45277;52.768;18.262;2022-11-23T08:46:30;2.30;99.90
59469;DHT22;45277;52.768;18.262;2022-11-23T08:48:02;2.30;99.90
59469;DHT22;45277;52.768;18.262;2022-11-23T08:49:33;2.30;99.90
59469;DHT22;45277;52.768;18.262;2022-11-23T08:51:06;2.30;99.90
59469;DHT22;45277;52.768;18.262;2022-11-23T08:52:37;2.30;99.90
59469;DHT22;45277;52.768;18.262;2022-11-23T08:54:08;2.30;99.90
59469;DHT22;45277;52.768;18.262;2022-11-23T08:55:40;2.30;99.90
59469;DHT22;45277;52.768;18.262;2022-11-23T08:57:12;2.30;99.90
59469;DHT22;45277;52.768;18.262;2022-11-23T08:58:43;2.40;99.90
59469;DHT22;45277;52.768;18.262;2022-11-23T09:00:15;2.40;99.90
59469;DHT22;45277;52.768;18.262;2022-11-23T09:01:47;2.40;99.90
59469;DHT22;45277;52.768;18.262;2022-11-23T09:03:19;2.40;99.90
59469;DHT22;45277;52.768;18.262;2022-11-23T09:04:51;2.40;99.90
59469;DHT22;45277;52.768;18.262;2022-11-23T09:06:22;2.30;99.90
59469;DHT22;45277;52.768;18.262;2022-11-23T09:07:59;2.30;99.90
59469;DHT22;45277;52.768;18.262;2022-11-23T09:09:31;2.40;99.90
59469;DHT22;45277;52.768;18.262;2022-11-23T09:11:05;2.40;99.90
59469;DHT22;45277;52.768;18.262;2022-11-23T09:12:37;2.40;99.90
59469;DHT22;45277;52.768;18.262;2022-11-23T09:14:09;2.40;99.90
59469;DHT22;45277;52.768;18.262;2022-11-23T09:15:40;2.40;99.90
59469;DHT22;45277;52.768;18.262;2022-11-23T09:17:11;2.40;99.90
59469;DHT22;45277;52.768;18.262;2022-11-23T09:18:43;2.40;99.90
59469;DHT22;45277;52.768;18.262;2022-11-23T09:20:15;2.40;99.90
59469;DHT22;45277;52.768;18.262;2022-11-23T09:21:46;2.40;99.90
59469;DHT22;45277;52.768;18.262;2022-11-23T09:23:18;2.40;99.90
59469;DHT22;45277;52.768;18.262;2022-11-23T09:24:49;2.40;99.90
59469;DHT22;45277;52.768;18.262;2022-11-23T09:26:20;2.40;99.90
59469;DHT22;45277;52.768;18.262;2022-11-23T09:27:57;2.40;99.90
59469;DHT22;45277;52.768;18.262;2022-11-23T09:29:29;2.40;99.90
59469;DHT22;45277;52.768;18.262;2022-11-23T09:31:03;2.40;99.90
59469;DHT22;45277;52.768;18.262;2022-11-23T09:32:35;2.30;99.90
59469;DHT22;45277;52.768;18.262;2022-11-23T09:34:06;2.40;99.90
59469;DHT22;45277;52.768;18.262;2022-11-23T09:35:38;2.40;99.90
59469;DHT22;45277;52.768;18.262;2022-11-23T09:37:10;2.40;99.90
59469;DHT22;45277;52.768;18.262;2022-11-23T09:38:41;2.40;99.90
59469;DHT22;45277;52.768;18.262;2022-11-23T09:40:16;2.40;99.90
59469;DHT22;45277;52.768;18.262;2022-11-23T09:44:43;2.50;99.90
59469;DHT22;45277;52.768;18.262;2022-11-23T09:46:54;2.50;99.90
59469;DHT22;45277;52.768;18.262;2022-11-23T09:49:02;2.60;99.90
59469;DHT22;45277;52.768;18.262;2022-11-23T09:52:21;2.50;99.90